»·PEaware :: UAL324 KSFO-KSEA

UAL324 :: KSFO-KSEA

FLIGHT INFORMATION

Flight Status: Arrived
Operator:
United Airlines
More flights by this operator :: More flights under this callsign
Pilot: Klaus K. (15267)
Aircraft: BOEING 737-200
(B732)
More flights by this aircraft type
Origin: KSFO San Francisco Intl
United States
Destination: KSEA Seattle-Tacoma Intl
United States
More flights between these airports :: More routes between these airports
Route: +SFO4 RBL J1 BTG OLM2
File this flight plan on PilotEdge
Remarks: / W
Altitude:
(Current/Filed)
30,000ft
Speed:
(Current/Filed)
400kts
Departed: 01-May-18 11:27 AM
Arrived: 01-May-18 01:28 PM
Distance/Time
Traveled:
589nm/2:01
Distance/Time
To Go:
Arrived

Flight Plot

Page will automatically refresh every two minutes.

Flight plan parsing failed; only flown route is shown


Map Options




Map Legend


Flown Route
Filed Route
Departure Airport
Arrival Airport
Navaid (VOR, NDB)
Fix

Horizontal Profiles

Position Reports

Time Latitude Longitude Heading Altitude Ground
Speed
01-May-18 10:57 37.614482 -122.381955 319 18ft 0kts
01-May-18 10:58 37.614482 -122.381954 319 18ft 0kts
01-May-18 10:59 37.614482 -122.381954 319 17ft 0kts
01-May-18 11:00 37.614482 -122.381955 319 17ft 0kts
01-May-18 11:01 37.614482 -122.381955 319 17ft 0kts
01-May-18 11:02 37.614482 -122.381955 319 17ft 0kts
01-May-18 11:03 37.614482 -122.381954 319 17ft 0kts
01-May-18 11:04 37.614482 -122.381955 319 17ft 0kts
01-May-18 11:05 37.614482 -122.381955 319 17ft 0kts
01-May-18 11:06 37.614482 -122.381954 319 17ft 0kts
01-May-18 11:07 37.614482 -122.381954 319 17ft 0kts
01-May-18 11:08 37.614482 -122.381954 319 17ft 0kts
01-May-18 11:09 37.614482 -122.381954 319 17ft 0kts
01-May-18 11:10 37.614482 -122.381954 319 17ft 0kts
01-May-18 11:11 37.614482 -122.381954 319 17ft 0kts
01-May-18 11:12 37.614482 -122.381954 319 17ft 0kts
01-May-18 11:13 37.614482 -122.381954 319 17ft 0kts
01-May-18 11:14 37.614485 -122.381957 319 18ft 0kts
01-May-18 11:15 37.614218 -122.381560 280 18ft 2kts
01-May-18 11:16 37.614397 -122.381109 208 18ft 0kts
01-May-18 11:17 37.614397 -122.381110 208 18ft 0kts
01-May-18 11:18 37.614397 -122.381110 208 18ft 0kts
01-May-18 11:19 37.614397 -122.381110 208 18ft 0kts
01-May-18 11:20 37.614397 -122.381110 208 18ft 0kts
01-May-18 11:21 37.611445 -122.383083 208 17ft 17kts
01-May-18 11:22 37.609148 -122.383532 127 18ft 0kts
01-May-18 11:23 37.609148 -122.383532 127 18ft 0kts
01-May-18 11:24 37.609148 -122.383532 127 18ft 0kts
01-May-18 11:25 37.608910 -122.383044 117 17ft 10kts
01-May-18 11:26 37.630726 -122.368759 24 478ft 174kts
01-May-18 11:27 37.667796 -122.321881 40 2882ft 237kts
01-May-18 11:28 37.723745 -122.274193 3 5829ft 255kts
01-May-18 11:29 37.797721 -122.264487 3 8483ft 274kts
01-May-18 11:30 37.873213 -122.253366 3 10994ft 287kts
01-May-18 11:31 37.952056 -122.239972 3 13635ft 284kts
01-May-18 11:32 38.029110 -122.229152 1 15947ft 281kts
01-May-18 11:33 38.110091 -122.232671 353 16738ft 323kts
01-May-18 11:34 38.199950 -122.235300 356 19146ft 320kts
01-May-18 11:35 38.288416 -122.236050 359 21011ft 322kts
01-May-18 11:36 38.377301 -122.236059 359 22664ft 326kts
01-May-18 11:37 38.467907 -122.236028 359 24111ft 329kts
01-May-18 11:38 38.561798 -122.236196 353 24804ft 351kts
01-May-18 11:39 38.661239 -122.235925 350 25466ft 373kts
01-May-18 11:40 38.767768 -122.236095 351 25945ft 398kts
01-May-18 11:41 38.880457 -122.236163 355 26526ft 419kts
01-May-18 11:42 38.998028 -122.236397 3 27458ft 428kts
01-May-18 11:43 39.112558 -122.236372 9 29088ft 411kts
01-May-18 11:44 39.225790 -122.235891 9 29957ft 407kts
01-May-18 11:45 39.337526 -122.235500 4 29949ft 400kts
01-May-18 11:46 39.446111 -122.235554 0 29934ft 384kts
01-May-18 11:47 39.549498 -122.235681 359 29936ft 368kts
01-May-18 11:48 39.650321 -122.235804 359 29936ft 360kts
01-May-18 11:49 39.748806 -122.235791 359 29937ft 360kts
01-May-18 11:50 39.848248 -122.235798 359 29935ft 365kts
01-May-18 11:51 39.949561 -122.235835 359 29933ft 369kts
01-May-18 11:52 40.051808 -122.235919 359 29931ft 373kts
01-May-18 11:53 40.151922 -122.236090 2 29955ft 375kts
01-May-18 11:54 40.255016 -122.235839 2 29947ft 375kts
01-May-18 11:55 40.352517 -122.286641 342 29947ft 386kts
01-May-18 11:56 40.453197 -122.330231 350 29942ft 380kts
01-May-18 11:57 40.555047 -122.362254 352 29939ft 376kts
01-May-18 11:58 40.656700 -122.391704 353 29941ft 372kts
01-May-18 11:59 40.756871 -122.420075 352 29935ft 368kts
01-May-18 12:00 40.855477 -122.448108 353 30062ft 362kts
01-May-18 12:01 40.953542 -122.476014 353 30066ft 360kts
01-May-18 12:02 41.049952 -122.503535 353 30012ft 359kts
01-May-18 12:03 41.142941 -122.529943 353 30031ft 358kts
01-May-18 12:04 41.240352 -122.557714 353 30029ft 359kts
01-May-18 12:05 41.337916 -122.585831 353 30028ft 360kts
01-May-18 12:06 41.435356 -122.613979 353 30076ft 359kts
01-May-18 12:07 41.531772 -122.641890 353 30077ft 359kts
01-May-18 12:08 41.628073 -122.671204 352 30070ft 359kts
01-May-18 12:09 41.724275 -122.699863 352 30069ft 357kts
01-May-18 12:10 41.820605 -122.728123 352 30067ft 356kts
01-May-18 12:11 41.915142 -122.762241 340 30078ft 365kts
01-May-18 12:12 42.010173 -122.791683 354 30066ft 351kts
01-May-18 12:13 42.103400 -122.815262 354 30115ft 349kts
01-May-18 12:14 42.197978 -122.839147 354 30136ft 351kts
01-May-18 12:15 42.293081 -122.864106 354 30132ft 353kts
01-May-18 12:17 42.388493 -122.889193 354 30132ft 354kts
01-May-18 12:18 42.484914 -122.900210 359 30129ft 351kts
01-May-18 12:19 42.580971 -122.901751 5 30127ft 348kts
01-May-18 12:20 42.677124 -122.893947 6 30125ft 347kts
01-May-18 12:21 42.773094 -122.885116 6 30122ft 347kts
01-May-18 12:22 42.868185 -122.876090 6 30146ft 345kts
01-May-18 12:23 42.963414 -122.866958 6 30144ft 344kts
01-May-18 12:24 43.058119 -122.857824 6 30142ft 343kts
01-May-18 12:25 43.150984 -122.848922 6 30164ft 344kts
01-May-18 12:26 43.246198 -122.839747 6 30162ft 346kts
01-May-18 12:27 43.342174 -122.830419 6 30160ft 347kts
01-May-18 12:28 43.438452 -122.821006 6 30157ft 348kts
01-May-18 12:29 43.534814 -122.811537 6 30154ft 348kts
01-May-18 12:30 43.631167 -122.802028 6 30152ft 349kts
01-May-18 12:31 43.727466 -122.792491 6 30150ft 348kts
01-May-18 12:32 43.824141 -122.782888 6 30147ft 348kts
01-May-18 12:33 43.920299 -122.773317 6 30145ft 348kts
01-May-18 12:34 44.016568 -122.763740 6 30143ft 347kts
01-May-18 12:35 44.111003 -122.754364 6 30155ft 347kts
01-May-18 12:36 44.206867 -122.745035 6 30163ft 349kts
01-May-18 12:37 44.303796 -122.735247 6 30160ft 351kts
01-May-18 12:38 44.400754 -122.725674 3 30154ft 353kts
01-May-18 12:39 44.496498 -122.755566 357 30159ft 356kts
01-May-18 12:40 44.593979 -122.757419 5 30153ft 353kts
01-May-18 12:41 44.690929 -122.747184 7 30151ft 352kts
01-May-18 12:42 44.787769 -122.734029 7 30148ft 352kts
01-May-18 12:43 44.883490 -122.720300 7 30173ft 350kts
01-May-18 12:44 44.977482 -122.706613 7 30171ft 350kts
01-May-18 12:44 45.057870 -122.694844 7 30169ft 349kts
01-May-18 12:46 45.168990 -122.678509 7 30190ft 350kts
01-May-18 12:46 45.248853 -122.666714 7 30188ft 352kts
01-May-18 12:48 45.361642 -122.649981 7 30185ft 354kts
01-May-18 12:49 45.458943 -122.635486 7 30156ft 355kts
01-May-18 12:50 45.556364 -122.620940 7 30155ft 355kts
01-May-18 12:51 45.654152 -122.606217 7 30151ft 354kts
01-May-18 12:52 45.751112 -122.601944 0 30148ft 354kts
01-May-18 12:53 45.847955 -122.617932 354 30172ft 355kts
01-May-18 12:54 45.944479 -122.642537 354 30171ft 354kts
01-May-18 12:54 46.024664 -122.662966 354 30169ft 353kts
01-May-18 12:55 46.114724 -122.685912 354 30188ft 351kts
01-May-18 12:56 46.209996 -122.710067 354 30190ft 354kts
01-May-18 12:57 46.305611 -122.733343 354 30188ft 355kts
01-May-18 12:58 46.400891 -122.756770 354 30067ft 341kts
01-May-18 12:59 46.492140 -122.779689 354 28538ft 332kts
01-May-18 13:00 46.581157 -122.802263 354 27070ft 320kts
01-May-18 13:01 46.666744 -122.823986 354 25508ft 314kts
01-May-18 13:02 46.751346 -122.845615 354 24008ft 307kts
01-May-18 13:03 46.833418 -122.866618 354 22126ft 300kts
01-May-18 13:04 46.914050 -122.887325 353 19977ft 294kts
01-May-18 13:05 46.986601 -122.852767 28 17907ft 286kts
01-May-18 13:06 47.053589 -122.791216 28 15620ft 289kts
01-May-18 13:07 47.112229 -122.721691 37 13694ft 290kts
01-May-18 13:08 47.168036 -122.650906 37 12980ft 260kts
01-May-18 13:09 47.224010 -122.579165 37 12978ft 266kts
01-May-18 13:10 47.278736 -122.508521 38 11911ft 266kts
01-May-18 13:11 47.347842 -122.492981 357 10495ft 264kts
01-May-18 13:12 47.418913 -122.499138 357 9956ft 237kts
01-May-18 13:13 47.478281 -122.504679 357 9420ft 208kts
01-May-18 13:14 47.531895 -122.509260 358 8701ft 178kts
01-May-18 13:15 47.582554 -122.512508 358 7092ft 191kts
01-May-18 13:16 47.633379 -122.499112 13 6121ft 187kts
01-May-18 13:17 47.682997 -122.480743 13 5628ft 183kts
01-May-18 13:18 47.716283 -122.435908 84 4821ft 186kts
01-May-18 13:19 47.717598 -122.399557 84 4514ft 185kts
01-May-18 13:20 47.714402 -122.299972 145 3947ft 163kts
01-May-18 13:21 47.670303 -122.308783 182 4003ft 182kts
01-May-18 13:22 47.620442 -122.309643 181 3523ft 181kts
01-May-18 13:23 47.571327 -122.310068 181 2536ft 167kts
01-May-18 13:24 47.531558 -122.310588 183 1750ft 143kts
01-May-18 13:25 47.492412 -122.310769 182 954ft 139kts
01-May-18 13:26 47.454347 -122.311148 179 360ft 119kts
01-May-18 13:27 47.439859 -122.309492 150 359ft 24kts
01-May-18 13:28 47.441943 -122.306363 0 359ft 16kts
01-May-18 13:29 47.443001 -122.304425 138 359ft 6kts
01-May-18 13:30 47.442618 -122.303934 139 359ft 0kts

Navigation Log

Ident Type
Flight plan parsing failed, navigation log unavailable